METAR Data
IDs: Format: Raw Decoded Include TAF

Data at: 0716 UTC 18 Sep 2021

EGOS 180650Z AUTO 05002KT 9999 SCT110/// 14/13 Q1013